Time;durP1;ratioP1;P1;durP2;ratioP2;P2;SDS_P1;SDS_P2;PMS_P1;PMS_P2;Temp;Humidity;BMP_temperature;BMP_pressure;BME280_temperature;BME280_humidity;BME280_pressure;Samples;Min_cycle;Max_cycle;Signal;HPM_P1;HPM_P2
2021/04/13 00:00:00;;;;;;;10.88;3.83;;;4.60;87.10;;;;;;5005619;28;20026;-87
2021/04/13 00:02:38;;;;;;;8.13;3.67;;;4.60;87.20;;;;;;4994177;28;20034;-88
2021/04/13 00:05:11;;;;;;;9.20;3.47;;;4.60;87.20;;;;;;4981321;28;20030;-88
2021/04/13 00:07:39;;;;;;;6.03;2.33;;;4.60;87.30;;;;;;4979556;28;20061;-88
2021/04/13 00:10:33;;;;;;;4.80;2.30;;;4.60;87.20;;;;;;4992284;28;20037;-87
2021/04/13 00:13:00;;;;;;;8.02;2.15;;;4.50;87.40;;;;;;4993385;28;20030;-88
2021/04/13 00:15:35;;;;;;;8.88;2.65;;;4.50;87.50;;;;;;4993012;28;20117;-87
2021/04/13 00:18:03;;;;;;;5.47;2.17;;;4.50;87.80;;;;;;4994012;28;20033;-87
2021/04/13 00:20:56;;;;;;;6.05;2.50;;;4.50;87.60;;;;;;4969048;28;20190;-88
2021/04/13 00:23:22;;;;;;;5.30;2.00;;;4.50;88.10;;;;;;4990898;28;20030;-89
2021/04/13 00:26:01;;;;;;;6.28;2.40;;;4.50;88.00;;;;;;4977158;28;20481;-88
2021/04/13 00:28:35;;;;;;;5.25;2.45;;;4.50;88.10;;;;;;4994288;28;20030;-88
2021/04/13 00:31:04;;;;;;;8.77;2.28;;;4.40;88.20;;;;;;4993358;28;20118;-87
2021/04/13 00:33:32;;;;;;;4.20;2.10;;;4.40;88.20;;;;;;4994018;28;20030;-87
2021/04/13 00:36:10;;;;;;;4.93;2.20;;;4.50;88.30;;;;;;4993927;28;20034;-87
2021/04/13 00:38:44;;;;;;;5.18;2.10;;;4.50;88.60;;;;;;4988414;28;20092;-88
2021/04/13 00:41:42;;;;;;;5.30;2.05;;;4.50;89.00;;;;;;4993104;28;20085;-88
2021/04/13 00:44:10;;;;;;;4.72;2.00;;;4.40;89.00;;;;;;4987521;28;20039;-88
2021/04/13 00:47:04;;;;;;;5.88;1.77;;;4.40;89.20;;;;;;4976543;28;20050;-88
2021/04/13 00:49:33;;;;;;;5.13;1.95;;;4.50;89.20;;;;;;4988933;28;20034;-88
2021/04/13 00:52:03;;;;;;;4.60;1.83;;;4.50;89.00;;;;;;4992632;28;20081;-88
2021/04/13 00:54:38;;;;;;;5.82;1.90;;;4.40;89.00;;;;;;4993968;28;20062;-88
2021/04/13 00:57:23;;;;;;;4.78;1.80;;;4.40;89.30;;;;;;4993751;28;20031;-88
2021/04/13 00:59:51;;;;;;;3.78;1.98;;;4.40;89.20;;;;;;4994246;28;20027;-86
2021/04/13 01:02:29;;;;;;;5.93;2.13;;;4.40;89.40;;;;;;4992595;28;20022;-88
2021/04/13 01:05:03;;;;;;;8.25;2.55;;;4.30;89.50;;;;;;4993803;28;20027;-88
2021/04/13 01:07:43;;;;;;;4.22;1.95;;;4.30;89.60;;;;;;4994103;28;20381;-87
2021/04/13 01:10:15;;;;;;;6.93;1.95;;;4.30;89.80;;;;;;4992576;28;20097;-88
2021/04/13 01:12:42;;;;;;;;;;;4.30;89.60;;;;;;4992715;28;20025;-88
2021/04/13 01:15:14;;;;;;;5.70;2.40;;;4.40;89.80;;;;;;4992925;28;19910;-88
2021/04/13 01:17:42;;;;;;;5.53;1.90;;;4.30;90.00;;;;;;4978899;28;20073;-88
2021/04/13 01:20:21;;;;;;;4.20;1.80;;;4.30;90.10;;;;;;4987931;28;20586;-87
2021/04/13 01:25:32;;;;;;;4.30;1.80;;;4.30;90.30;;;;;;4996731;28;20046;-88
2021/04/13 01:28:01;;;;;;;3.13;1.45;;;4.40;90.40;;;;;;4996272;28;20065;-87
2021/04/13 01:30:39;;;;;;;4.18;1.65;;;4.20;90.20;;;;;;4996106;28;20026;-88
2021/04/13 01:33:50;;;;;;;3.72;1.48;;;4.20;90.30;;;;;;4996242;28;20022;-88
2021/04/13 01:36:18;;;;;;;7.85;1.80;;;4.30;90.50;;;;;;4996296;28;20026;-87
2021/04/13 01:39:14;;;;;;;3.47;1.70;;;4.20;90.30;;;;;;4995896;28;20033;-87
2021/04/13 01:44:21;;;;;;;4.90;1.77;;;4.20;90.30;;;;;;4997265;28;20062;-87
2021/04/13 01:46:46;;;;;;;8.63;2.20;;;4.10;90.30;;;;;;4995783;28;20022;-87
2021/04/13 01:49:13;;;;;;;2.78;1.33;;;4.10;90.50;;;;;;4979656;28;20089;-88
2021/04/13 01:51:39;;;;;;;4.63;2.03;;;4.10;90.70;;;;;;4995788;28;20042;-84
2021/04/13 01:54:11;;;;;;;3.47;1.40;;;4.10;90.70;;;;;;4979570;28;20031;-87
2021/04/13 01:57:13;;;;;;;5.97;1.80;;;4.10;90.70;;;;;;4997230;28;20022;-88
2021/04/13 01:59:48;;;;;;;7.18;1.83;;;4.10;90.80;;;;;;4965688;28;20093;-89
2021/04/13 02:02:28;;;;;;;4.53;1.83;;;4.10;90.80;;;;;;4996280;28;20030;-88
2021/04/13 02:04:58;;;;;;;3.88;1.77;;;4.10;90.70;;;;;;4995646;28;20030;-88
2021/04/13 02:07:42;;;;;;;2.75;1.42;;;4.00;90.90;;;;;;4995905;28;20068;-88
2021/04/13 02:10:21;;;;;;;3.67;1.55;;;4.00;90.90;;;;;;4994106;28;20033;-88
2021/04/13 02:12:48;;;;;;;3.00;1.40;;;4.00;90.80;;;;;;4994875;28;20077;-88
2021/04/13 02:15:40;;;;;;;3.97;1.80;;;4.00;90.70;;;;;;4989982;28;20114;-88
2021/04/13 02:18:13;;;;;;;5.07;1.52;;;3.90;90.80;;;;;;4975500;28;20027;-88
2021/04/13 02:20:45;;;;;;;6.88;2.08;;;4.00;91.00;;;;;;4976032;28;20047;-88
2021/04/13 02:23:13;;;;;;;4.60;1.45;;;3.90;91.10;;;;;;4980153;28;20018;-87
2021/04/13 02:25:40;;;;;;;4.75;2.17;;;3.80;91.20;;;;;;4994629;28;20038;-86
2021/04/13 02:28:08;;;;;;;3.30;1.38;;;3.90;91.30;;;;;;4997168;28;20092;-85
2021/04/13 02:30:44;;;;;;;5.22;1.90;;;3.80;91.20;;;;;;4977078;28;20023;-87
2021/04/13 02:33:18;;;;;;;2.20;1.27;;;3.90;91.10;;;;;;5006998;28;20029;-84
2021/04/13 02:35:45;;;;;;;5.38;1.45;;;3.80;91.20;;;;;;4997188;28;20053;-87
2021/04/13 02:38:15;;;;;;;3.13;1.55;;;3.70;91.30;;;;;;5009001;28;20061;-87
2021/04/13 02:41:01;;;;;;;4.57;1.60;;;3.70;91.40;;;;;;4995284;28;20026;-87
2021/04/13 02:43:39;;;;;;;2.22;1.30;;;3.70;91.50;;;;;;4993916;28;20625;-87
2021/04/13 02:46:15;;;;;;;3.55;1.67;;;3.70;91.40;;;;;;4985604;28;20030;-87
2021/04/13 02:48:49;;;;;;;7.82;2.38;;;3.70;91.50;;;;;;4991909;28;20022;-87
2021/04/13 02:51:17;;;;;;;5.60;2.00;;;3.60;91.50;;;;;;4975456;28;20058;-87
2021/04/13 02:53:51;;;;;;;4.50;1.60;;;3.70;91.60;;;;;;4991180;28;20026;-85
2021/04/13 02:56:29;;;;;;;5.20;1.83;;;3.60;91.70;;;;;;4995253;28;20394;-87
2021/04/13 02:59:25;;;;;;;5.40;1.88;;;3.60;91.50;;;;;;5011677;28;20025;-87
2021/04/13 03:02:08;;;;;;;4.75;2.42;;;3.60;91.70;;;;;;4994388;28;20483;-88
2021/04/13 03:04:40;;;;;;;5.80;1.90;;;3.60;91.80;;;;;;4990881;28;20352;-87
2021/04/13 03:07:06;;;;;;;6.10;2.17;;;3.60;91.70;;;;;;5013417;28;20032;-87
2021/04/13 03:09:35;;;;;;;4.75;1.85;;;3.50;91.80;;;;;;4985128;28;20026;-87
2021/04/13 03:12:03;;;;;;;7.22;1.98;;;3.60;91.90;;;;;;5013931;28;20026;-87
2021/04/13 03:14:46;;;;;;;3.78;1.92;;;3.50;91.90;;;;;;5000046;28;20038;-87
2021/04/13 03:17:15;;;;;;;4.20;1.95;;;3.50;92.00;;;;;;5000720;28;20026;-87
2021/04/13 03:19:43;;;;;;;5.35;2.00;;;3.50;92.20;;;;;;4977257;28;20162;-87
2021/04/13 03:22:09;;;;;;;5.28;1.90;;;3.50;92.00;;;;;;4958943;28;20065;-87
2021/04/13 03:24:44;;;;;;;4.55;2.03;;;3.50;91.90;;;;;;4960761;28;20036;-87
2021/04/13 03:27:19;;;;;;;4.85;2.00;;;3.50;92.00;;;;;;4994148;28;20085;-87
2021/04/13 03:29:59;;;;;;;6.70;2.72;;;3.50;92.10;;;;;;5012806;28;20024;-87
2021/04/13 03:32:32;;;;;;;3.95;1.92;;;3.50;92.10;;;;;;5003225;28;20472;-87
2021/04/13 03:34:59;;;;;;;4.07;2.00;;;3.40;92.00;;;;;;4999008;28;20037;-88
2021/04/13 03:37:26;;;;;;;5.68;2.25;;;3.40;92.40;;;;;;5002426;28;20029;-87
2021/04/13 03:39:53;;;;;;;6.07;2.45;;;3.40;92.10;;;;;;4993635;28;20030;-87
2021/04/13 03:42:31;;;;;;;6.95;2.63;;;3.40;92.20;;;;;;4995373;28;20043;-87
2021/04/13 03:44:58;;;;;;;4.05;2.17;;;3.40;92.10;;;;;;4990875;28;20042;-87
2021/04/13 03:47:28;;;;;;;4.57;2.40;;;3.40;92.20;;;;;;4993524;28;20064;-86
2021/04/13 03:49:55;;;;;;;6.85;2.50;;;3.30;92.30;;;;;;4995629;28;20033;-88
2021/04/13 03:52:29;;;;;;;5.65;2.25;;;3.40;92.30;;;;;;5005375;28;20399;-89
2021/04/13 03:54:55;;;;;;;4.93;2.50;;;3.30;92.30;;;;;;5007273;28;20025;-88
2021/04/13 03:57:35;;;;;;;7.60;2.50;;;3.30;92.40;;;;;;4968637;28;20034;-88
2021/04/13 04:00:05;;;;;;;4.38;1.98;;;3.30;92.30;;;;;;4997736;28;20053;-88
2021/04/13 04:02:32;;;;;;;4.53;1.90;;;3.30;92.20;;;;;;4994627;28;20022;-87
2021/04/13 04:05:22;;;;;;;6.05;2.58;;;3.40;92.30;;;;;;4976340;28;20386;-89
2021/04/13 04:08:02;;;;;;;3.97;2.22;;;3.30;92.30;;;;;;4974300;28;20078;-88
2021/04/13 04:10:30;;;;;;;6.20;2.33;;;3.30;92.30;;;;;;4977638;28;20073;-88
2021/04/13 04:13:06;;;;;;;6.15;2.40;;;3.20;92.20;;;;;;4993170;28;20096;-88
2021/04/13 04:15:50;;;;;;;5.07;2.17;;;3.20;92.20;;;;;;4989303;28;20023;-88
2021/04/13 04:18:37;;;;;;;8.05;2.70;;;3.10;92.40;;;;;;4972978;28;20530;-88
2021/04/13 04:21:18;;;;;;;7.78;2.60;;;3.10;92.60;;;;;;4985847;28;20087;-88
2021/04/13 04:23:44;;;;;;;7.25;2.60;;;3.10;92.70;;;;;;4984354;28;20102;-89
2021/04/13 04:26:11;;;;;;;7.53;2.88;;;3.10;92.80;;;;;;4975487;28;20122;-88
2021/04/13 04:28:41;;;;;;;4.60;2.47;;;3.00;92.70;;;;;;4978544;28;20073;-88
2021/04/13 04:31:35;;;;;;;7.97;2.72;;;3.00;92.80;;;;;;4975087;28;20521;-88
2021/04/13 04:34:14;;;;;;;4.55;2.28;;;3.00;92.80;;;;;;4988642;28;20041;-86
2021/04/13 04:36:48;;;;;;;6.60;2.50;;;2.90;92.80;;;;;;4991139;28;20034;-87
2021/04/13 04:39:33;;;;;;;6.38;2.42;;;3.00;92.80;;;;;;4992115;28;20022;-87
2021/04/13 04:42:07;;;;;;;5.32;3.05;;;2.90;92.70;;;;;;4979932;28;20105;-88
2021/04/13 04:44:32;;;;;;;4.90;2.60;;;2.80;92.80;;;;;;5006066;28;20030;-88
2021/04/13 04:46:59;;;;;;;5.60;2.35;;;2.80;92.90;;;;;;4972784;28;20118;-88
2021/04/13 04:49:34;;;;;;;5.72;2.53;;;2.80;92.90;;;;;;4985153;28;20022;-88
2021/04/13 04:52:00;;;;;;;4.82;2.30;;;2.80;93.10;;;;;;4992376;28;20027;-87
2021/04/13 04:54:26;;;;;;;7.43;2.67;;;2.80;93.10;;;;;;4982817;28;20031;-88
2021/04/13 04:56:51;;;;;;;6.07;2.72;;;2.80;93.20;;;;;;4991657;28;20037;-88
2021/04/13 04:59:17;;;;;;;7.35;2.72;;;2.80;93.30;;;;;;4974366;28;20407;-88
2021/04/13 05:01:43;;;;;;;6.88;2.45;;;2.80;93.30;;;;;;5006476;28;20034;-87
2021/04/13 05:04:11;;;;;;;6.32;2.90;;;2.80;93.30;;;;;;4977183;28;20072;-87
2021/04/13 05:06:39;;;;;;;5.40;2.90;;;2.90;93.40;;;;;;4985455;28;20030;-88
2021/04/13 05:09:05;;;;;;;9.10;3.20;;;2.80;93.50;;;;;;4970870;28;20034;-87
2021/04/13 05:11:30;;;;;;;7.80;2.90;;;2.80;93.50;;;;;;4970976;28;20031;-88
2021/04/13 05:13:56;;;;;;;7.35;2.90;;;2.80;93.50;;;;;;4956681;28;20031;-88
2021/04/13 05:16:22;;;;;;;9.27;2.90;;;2.80;93.50;;;;;;4959122;28;20031;-88
2021/04/13 05:18:49;;;;;;;6.28;3.63;;;2.80;93.50;;;;;;4982114;28;20061;-88
2021/04/13 05:21:15;;;;;;;6.97;2.78;;;2.90;93.60;;;;;;5001761;28;20509;-88
2021/04/13 05:23:41;;;;;;;6.63;2.90;;;2.90;93.60;;;;;;4993964;28;20475;-88
2021/04/13 05:26:08;;;;;;;8.48;4.03;;;2.90;93.60;;;;;;4976032;28;20050;-88
2021/04/13 05:28:35;;;;;;;8.18;2.95;;;2.80;93.50;;;;;;4947803;28;20049;-89
2021/04/13 05:31:00;;;;;;;6.93;3.30;;;2.90;93.60;;;;;;4992201;28;20530;-89
2021/04/13 05:33:26;;;;;;;5.38;2.70;;;2.90;93.60;;;;;;4951037;28;20130;-87
2021/04/13 05:35:53;;;;;;;6.10;2.90;;;2.90;93.60;;;;;;4968969;28;20039;-86
2021/04/13 05:38:50;;;;;;;7.20;3.05;;;2.90;93.70;;;;;;4974123;28;20027;-88
2021/04/13 05:41:16;;;;;;;6.97;2.70;;;2.90;93.70;;;;;;4977568;28;20155;-88
2021/04/13 05:43:43;;;;;;;9.25;3.05;;;2.90;93.70;;;;;;4979388;28;20038;-88
2021/04/13 05:46:13;;;;;;;7.13;2.85;;;2.90;93.60;;;;;;4985696;28;20117;-89
2021/04/13 05:48:41;;;;;;;7.03;2.63;;;2.90;93.60;;;;;;4985414;28;20039;-89
2021/04/13 05:51:07;;;;;;;12.82;3.83;;;2.90;93.70;;;;;;4978173;28;20027;-95
2021/04/13 05:53:33;;;;;;;7.03;2.67;;;2.90;93.70;;;;;;4977063;28;20133;-88
2021/04/13 05:55:59;;;;;;;5.75;3.30;;;2.90;93.70;;;;;;4988943;28;20042;-88
2021/04/13 05:58:31;;;;;;;10.52;2.75;;;3.00;93.80;;;;;;4961403;28;20031;-87
2021/04/13 06:01:01;;;;;;;7.30;2.75;;;2.90;93.70;;;;;;4984774;28;20038;-88
2021/04/13 06:03:26;;;;;;;8.18;2.72;;;3.00;93.70;;;;;;4992995;28;20058;-88
2021/04/13 06:05:56;;;;;;;5.75;2.88;;;2.90;93.70;;;;;;4960353;28;20458;-89
2021/04/13 06:08:22;;;;;;;8.65;3.28;;;3.00;93.70;;;;;;4993705;28;20029;-87
2021/04/13 06:10:49;;;;;;;5.65;2.72;;;3.00;93.70;;;;;;4993579;28;20034;-88
2021/04/13 06:13:14;;;;;;;6.88;3.00;;;3.00;93.70;;;;;;4964315;28;20042;-88
2021/04/13 06:15:40;;;;;;;5.90;2.33;;;3.00;93.70;;;;;;4979846;28;20471;-88
2021/04/13 06:18:06;;;;;;;8.13;2.38;;;3.10;93.70;;;;;;4983212;28;20062;-88
2021/04/13 06:20:32;;;;;;;9.05;2.75;;;3.20;93.70;;;;;;4979061;28;20054;-87
2021/04/13 06:22:58;;;;;;;7.68;2.78;;;3.10;93.70;;;;;;4996355;28;20038;-87
2021/04/13 06:25:26;;;;;;;6.88;2.67;;;3.30;93.70;;;;;;4994821;28;20113;-88
2021/04/13 06:27:53;;;;;;;5.18;2.45;;;3.20;93.70;;;;;;4993483;28;20049;-87
2021/04/13 06:30:21;;;;;;;5.85;2.42;;;3.20;93.70;;;;;;4966834;28;20483;-87
2021/04/13 06:32:47;;;;;;;7.30;2.30;;;3.30;93.70;;;;;;4985371;28;20497;-87
2021/04/13 06:35:13;;;;;;;5.70;2.45;;;3.30;93.70;;;;;;5014744;28;20034;-87
2021/04/13 06:37:42;;;;;;;4.82;2.15;;;3.40;93.70;;;;;;4996580;28;20038;-87
2021/04/13 06:40:12;;;;;;;5.10;2.40;;;3.50;93.70;;;;;;5006036;28;20025;-87
2021/04/13 06:42:52;;;;;;;4.22;2.15;;;3.50;93.70;;;;;;5012007;28;20057;-86
2021/04/13 06:45:31;;;;;;;4.30;2.05;;;3.60;93.70;;;;;;4983233;28;20031;-87
2021/04/13 06:48:19;;;;;;;6.97;3.10;;;3.70;93.70;;;;;;4985048;28;20025;-88
2021/04/13 06:50:48;;;;;;;6.00;2.58;;;3.70;93.70;;;;;;4994806;28;20104;-88
2021/04/13 06:53:53;;;;;;;5.80;2.22;;;3.80;93.60;;;;;;4980195;28;20807;-87
2021/04/13 06:56:36;;;;;;;6.40;2.47;;;3.90;93.70;;;;;;4990637;28;20054;-87
2021/04/13 06:59:38;;;;;;;5.15;2.05;;;4.00;93.70;;;;;;4990419;28;20026;-88
2021/04/13 07:02:16;;;;;;;7.90;2.67;;;4.10;93.70;;;;;;4980359;28;20037;-87
2021/04/13 07:04:52;;;;;;;5.78;2.40;;;4.20;93.60;;;;;;4964534;28;20037;-86
2021/04/13 07:07:51;;;;;;;7.07;2.42;;;4.20;93.60;;;;;;4993731;28;20042;-85
2021/04/13 07:10:30;;;;;;;5.10;2.63;;;4.40;93.70;;;;;;4990285;28;20026;-85
2021/04/13 07:13:18;;;;;;;7.15;2.60;;;4.50;93.60;;;;;;4995546;28;20031;-86
2021/04/13 07:15:50;;;;;;;6.25;2.50;;;4.60;93.50;;;;;;4995209;28;20022;-86
2021/04/13 07:18:34;;;;;;;5.22;2.40;;;4.70;93.50;;;;;;5002642;28;20037;-86
2021/04/13 07:21:19;;;;;;;4.00;2.13;;;4.70;93.60;;;;;;4993424;28;20124;-88
2021/04/13 07:23:54;;;;;;;5.45;2.00;;;4.80;93.50;;;;;;4996223;28;20038;-86
2021/04/13 07:26:31;;;;;;;9.23;2.42;;;5.00;93.60;;;;;;5000516;28;20050;-88
2021/04/13 07:29:03;;;;;;;6.72;2.28;;;5.10;93.60;;;;;;4994234;28;20026;-86
2021/04/13 07:31:45;;;;;;;6.70;1.98;;;5.20;93.50;;;;;;4993578;28;20026;-88
2021/04/13 07:34:11;;;;;;;6.25;2.20;;;5.40;93.50;;;;;;4991787;28;20061;-86
2021/04/13 07:36:45;;;;;;;8.40;2.03;;;5.50;93.40;;;;;;4968686;28;20068;-87
2021/04/13 07:39:12;;;;;;;3.92;1.67;;;5.60;93.30;;;;;;4992728;28;20113;-85
2021/04/13 07:41:38;;;;;;;7.32;2.05;;;5.70;93.30;;;;;;4999202;28;20521;-86
2021/04/13 07:44:12;;;;;;;6.60;1.98;;;5.80;93.30;;;;;;4999336;28;20057;-88
2021/04/13 07:46:56;;;;;;;8.00;1.90;;;6.00;93.20;;;;;;4997241;28;20060;-87
2021/04/13 07:49:33;;;;;;;6.45;2.03;;;6.10;93.10;;;;;;5003772;28;20041;-88
2021/04/13 07:51:59;;;;;;;7.10;2.10;;;6.20;92.90;;;;;;4995104;28;20102;-86
2021/04/13 07:54:33;;;;;;;6.63;1.85;;;6.30;92.70;;;;;;4997929;28;20188;-86
2021/04/13 07:57:17;;;;;;;11.57;2.20;;;6.50;92.60;;;;;;5001553;28;20104;-88
2021/04/13 07:59:46;;;;;;;6.03;2.20;;;6.60;92.50;;;;;;4979192;28;20049;-87
2021/04/13 08:02:12;;;;;;;10.20;2.58;;;6.70;92.30;;;;;;4994226;28;20033;-86
2021/04/13 08:04:38;;;;;;;5.22;1.83;;;6.90;91.90;;;;;;5000603;28;20030;-87
2021/04/13 08:08:00;;;;;;;6.20;1.60;;;7.00;91.30;;;;;;4987575;28;20027;-87
2021/04/13 08:10:34;;;;;;;4.68;1.40;;;7.10;91.10;;;;;;4915684;29;20063;-88
2021/04/13 08:13:05;;;;;;;6.50;1.52;;;7.20;91.20;;;;;;4894321;29;20028;-89
2021/04/13 08:15:40;;;;;;;5.40;1.10;;;7.30;90.90;;;;;;4962882;28;20034;-89
2021/04/13 08:18:21;;;;;;;6.85;1.60;;;7.50;90.90;;;;;;5000143;28;20034;-89
2021/04/13 08:20:48;;;;;;;4.97;1.15;;;7.60;90.50;;;;;;4989937;28;20086;-91
2021/04/13 08:23:23;;;;;;;4.78;0.90;;;7.70;90.40;;;;;;4992190;28;20113;-88
2021/04/13 08:25:57;;;;;;;3.67;0.90;;;7.80;89.60;;;;;;4993403;28;20029;-90
2021/04/13 08:29:07;;;;;;;4.35;1.00;;;8.00;88.90;;;;;;4995109;28;20023;-92
2021/04/13 08:34:47;;;;;;;4.22;0.90;;;8.30;84.00;;;;;;4994383;28;20037;-92
2021/04/13 08:37:41;;;;;;;4.53;1.50;;;8.40;83.90;;;;;;4995169;28;20034;-91
2021/04/13 08:40:13;;;;;;;4.03;1.10;;;8.60;82.80;;;;;;4995135;28;20014;-90
2021/04/13 08:42:58;;;;;;;6.03;0.88;;;8.70;83.10;;;;;;4993841;28;20062;-88
2021/04/13 08:45:46;;;;;;;3.95;1.20;;;8.80;80.80;;;;;;4993067;28;20033;-90
2021/04/13 08:48:19;;;;;;;3.47;0.70;;;8.90;78.70;;;;;;4993400;28;20154;-90
2021/04/13 08:50:51;;;;;;;3.90;0.85;;;9.00;78.90;;;;;;5006652;28;20025;-91
2021/04/13 08:53:26;;;;;;;4.20;1.00;;;9.10;78.60;;;;;;4977833;28;20046;-88
2021/04/13 08:56:11;;;;;;;4.20;0.60;;;9.20;79.90;;;;;;4993723;28;20030;-87
2021/04/13 08:58:44;;;;;;;5.53;0.98;;;9.30;79.10;;;;;;4992636;28;20019;-87
2021/04/13 09:01:30;;;;;;;3.45;0.82;;;9.40;76.40;;;;;;4992148;28;20050;-92
2021/04/13 09:03:57;;;;;;;3.83;0.90;;;9.50;73.40;;;;;;4992532;28;20034;-87
2021/04/13 09:06:32;;;;;;;5.88;1.65;;;9.60;72.60;;;;;;4993190;28;20582;-86
2021/04/13 09:09:15;;;;;;;8.77;1.50;;;9.70;74.60;;;;;;4984075;28;20019;-88
2021/04/13 09:11:53;;;;;;;6.20;1.35;;;9.80;75.20;;;;;;4991249;28;20482;-86
2021/04/13 09:14:50;;;;;;;4.25;1.00;;;10.00;75.20;;;;;;4992336;28;20080;-90
2021/04/13 09:17:21;;;;;;;6.43;1.20;;;10.10;75.00;;;;;;4980033;28;20459;-87
2021/04/13 09:19:59;;;;;;;5.90;1.10;;;10.20;71.90;;;;;;4991713;28;20089;-87
2021/04/13 09:22:28;;;;;;;2.90;0.88;;;10.30;68.40;;;;;;4991906;28;20054;-87
2021/04/13 09:25:34;;;;;;;3.78;0.90;;;10.30;67.80;;;;;;4991270;28;20035;-87
2021/04/13 09:28:05;;;;;;;6.60;1.08;;;10.30;69.60;;;;;;4970390;28;20042;-87
2021/04/13 09:30:41;;;;;;;1.33;0.65;;;10.40;70.40;;;;;;4993765;28;20139;-89
2021/04/13 09:33:36;;;;;;;2.47;1.05;;;10.50;71.00;;;;;;5001017;28;20148;-87
2021/04/13 09:36:20;;;;;;;3.63;0.80;;;10.50;70.10;;;;;;4985524;28;20023;-87
2021/04/13 09:39:19;;;;;;;2.85;0.90;;;10.70;71.40;;;;;;4989365;28;20031;-89
2021/04/13 09:42:03;;;;;;;3.17;0.52;;;10.70;68.90;;;;;;4982025;28;20050;-89
2021/04/13 09:45:01;;;;;;;4.07;1.05;;;10.80;68.50;;;;;;4994188;28;20153;-86
2021/04/13 09:47:32;;;;;;;3.63;0.88;;;10.90;67.60;;;;;;4994894;28;20041;-85
2021/04/13 09:50:16;;;;;;;4.15;0.70;;;11.00;67.00;;;;;;4994952;28;20038;-85
2021/04/13 09:53:00;;;;;;;3.55;0.80;;;11.10;66.30;;;;;;4994677;28;20126;-84
2021/04/13 09:55:38;;;;;;;3.67;0.70;;;11.20;66.30;;;;;;5004340;28;20038;-85
2021/04/13 09:58:25;;;;;;;3.58;0.98;;;11.40;64.80;;;;;;4998542;28;20042;-84
2021/04/13 10:01:26;;;;;;;2.20;0.88;;;11.50;65.60;;;;;;5005317;28;20025;-85
2021/04/13 10:03:57;;;;;;;4.72;0.95;;;11.50;63.50;;;;;;5003472;28;20081;-85
2021/04/13 10:06:37;;;;;;;2.63;0.70;;;11.60;64.30;;;;;;4999708;28;20022;-85
2021/04/13 10:09:19;;;;;;;2.67;1.00;;;11.60;65.70;;;;;;4999556;28;20033;-85
2021/04/13 10:12:15;;;;;;;4.03;0.80;;;11.80;65.00;;;;;;4999995;28;20034;-85
2021/04/13 10:15:07;;;;;;;4.13;1.05;;;11.80;61.10;;;;;;5009325;28;20030;-84
2021/04/13 10:17:55;;;;;;;3.22;0.77;;;11.90;63.70;;;;;;5003152;28;20026;-85
2021/04/13 10:21:01;;;;;;;3.80;0.82;;;12.00;63.30;;;;;;5018628;28;20159;-85
2021/04/13 10:23:41;;;;;;;3.97;1.15;;;12.00;61.40;;;;;;5004489;28;20049;-86
2021/04/13 10:26:37;;;;;;;2.10;0.75;;;12.10;59.10;;;;;;5018180;28;20025;-84
2021/04/13 10:29:05;;;;;;;3.30;0.88;;;12.20;61.60;;;;;;4997755;28;20041;-84
2021/04/13 10:32:01;;;;;;;1.98;0.68;;;12.40;60.30;;;;;;4989089;28;20046;-84
2021/04/13 10:34:44;;;;;;;4.35;1.17;;;12.50;59.40;;;;;;4988240;28;20109;-83
2021/04/13 10:37:28;;;;;;;2.63;0.68;;;12.50;56.80;;;;;;4997206;28;20022;-85
2021/04/13 10:40:12;;;;;;;4.72;0.88;;;12.50;56.30;;;;;;4993397;28;20042;-84
2021/04/13 10:43:22;;;;;;;5.13;0.75;;;12.50;59.40;;;;;;4995040;28;20035;-85
2021/04/13 10:45:53;;;;;;;2.88;0.80;;;12.50;57.60;;;;;;5003792;28;20033;-85
2021/04/13 10:48:54;;;;;;;2.15;0.80;;;12.60;56.70;;;;;;4991448;28;20113;-86
2021/04/13 10:52:02;;;;;;;4.00;1.15;;;12.70;57.20;;;;;;4998515;28;20513;-84
2021/04/13 10:54:52;;;;;;;4.00;0.88;;;12.80;56.70;;;;;;5001512;28;20045;-85
2021/04/13 10:57:43;;;;;;;4.00;0.90;;;12.90;55.60;;;;;;4999457;28;20068;-87
2021/04/13 11:00:27;;;;;;;3.42;0.77;;;13.00;56.30;;;;;;5009705;28;20463;-84
2021/04/13 11:03:21;;;;;;;3.53;1.23;;;13.00;53.80;;;;;;4996790;28;20104;-85
2021/04/13 11:06:02;;;;;;;3.70;1.00;;;13.00;55.50;;;;;;4993883;28;20410;-84
2021/04/13 11:09:05;;;;;;;3.67;1.17;;;12.90;55.40;;;;;;4992431;28;20387;-85
2021/04/13 11:12:22;;;;;;;6.88;1.40;;;12.90;56.10;;;;;;4981267;28;20026;-85
2021/04/13 11:15:22;;;;;;;3.63;1.02;;;13.00;55.70;;;;;;4939054;28;20491;-84
2021/04/13 11:18:00;;;;;;;1.67;0.80;;;13.10;56.60;;;;;;4993822;28;20105;-84
2021/04/13 11:20:56;;;;;;;3.22;0.98;;;13.20;55.30;;;;;;4981756;28;20031;-85
2021/04/13 11:23:53;;;;;;;2.88;0.60;;;13.30;54.60;;;;;;4986082;28;20065;-85
2021/04/13 11:26:27;;;;;;;2.35;0.65;;;13.50;53.60;;;;;;4988444;28;20033;-85
2021/04/13 11:29:21;;;;;;;3.35;1.20;;;13.60;51.30;;;;;;4992112;28;20054;-84
2021/04/13 11:31:53;;;;;;;3.47;0.93;;;13.80;50.70;;;;;;4991669;28;20425;-85
2021/04/13 11:34:55;;;;;;;3.75;1.00;;;13.80;51.80;;;;;;4984140;28;20058;-84
2021/04/13 11:37:39;;;;;;;4.97;1.30;;;13.80;48.30;;;;;;4991895;28;20044;-84
2021/04/13 11:40:19;;;;;;;4.20;1.00;;;13.80;50.50;;;;;;4988079;28;20036;-84
2021/04/13 11:42:50;;;;;;;2.50;1.00;;;13.80;48.80;;;;;;4992643;28;20026;-91
2021/04/13 11:45:35;;;;;;;;;;;13.80;47.80;;;;;;4993237;28;20096;-86
2021/04/13 11:48:29;;;;;;;3.13;0.55;;;13.70;47.70;;;;;;4978408;28;20000;-85
2021/04/13 11:50:58;;;;;;;2.85;0.80;;;13.70;48.80;;;;;;4977556;28;20073;-85
2021/04/13 11:53:29;;;;;;;1.98;0.68;;;13.70;47.30;;;;;;4991961;28;20439;-84
2021/04/13 11:55:55;;;;;;;3.80;0.98;;;13.70;48.70;;;;;;4979506;28;20023;-84
2021/04/13 11:58:32;;;;;;;2.00;0.80;;;13.70;46.70;;;;;;4989658;28;20057;-84
2021/04/13 12:01:12;;;;;;;2.15;0.63;;;13.80;47.80;;;;;;4987346;28;20018;-85
2021/04/13 12:03:58;;;;;;;4.03;1.10;;;13.90;47.70;;;;;;4998523;28;20030;-83
2021/04/13 12:06:59;;;;;;;2.97;1.00;;;14.10;49.10;;;;;;4988274;28;20085;-84
2021/04/13 12:09:37;;;;;;;2.15;1.20;;;14.20;47.30;;;;;;4991000;28;20026;-85
2021/04/13 12:12:05;;;;;;;5.32;1.67;;;14.30;45.80;;;;;;4988978;28;20026;-85
2021/04/13 12:14:42;;;;;;;3.15;0.95;;;14.40;48.40;;;;;;4990672;28;20238;-85
2021/04/13 12:17:37;;;;;;;3.85;0.73;;;14.40;46.60;;;;;;4991329;28;20031;-85
2021/04/13 12:20:31;;;;;;;2.63;0.68;;;14.40;45.50;;;;;;4992255;28;20027;-85
2021/04/13 12:23:06;;;;;;;2.50;0.80;;;14.40;46.90;;;;;;4991188;28;20045;-84
2021/04/13 12:25:41;;;;;;;2.95;0.85;;;14.50;45.70;;;;;;4988691;28;20560;-85
2021/04/13 12:28:16;;;;;;;3.70;0.88;;;14.50;44.30;;;;;;4990999;28;20092;-85
2021/04/13 12:30:41;;;;;;;3.90;0.93;;;14.70;43.60;;;;;;5001407;28;20023;-84
2021/04/13 12:33:31;;;;;;;1.85;0.80;;;14.70;45.20;;;;;;4990926;28;20514;-84
2021/04/13 12:35:58;;;;;;;1.65;0.63;;;14.70;44.20;;;;;;4979975;28;20019;-84
2021/04/13 12:38:41;;;;;;;5.40;0.77;;;14.70;46.40;;;;;;4990685;28;20028;-85
2021/04/13 12:41:27;;;;;;;2.95;0.80;;;14.60;46.60;;;;;;4990434;28;20375;-84
2021/04/13 12:43:55;;;;;;;3.00;1.25;;;14.50;47.30;;;;;;4992024;28;20046;-85
2021/04/13 12:46:24;;;;;;;4.35;0.93;;;14.40;46.60;;;;;;4992352;28;20019;-84
2021/04/13 12:48:52;;;;;;;4.47;1.13;;;14.40;47.60;;;;;;4990926;28;20022;-84
2021/04/13 12:51:50;;;;;;;1.52;0.55;;;14.30;48.40;;;;;;4991923;28;20163;-85
2021/04/13 12:54:34;;;;;;;4.78;1.20;;;14.30;49.10;;;;;;4986108;28;20038;-85
2021/04/13 12:57:21;;;;;;;2.78;0.80;;;14.40;49.00;;;;;;4992073;28;20070;-85
2021/04/13 12:59:49;;;;;;;6.78;1.20;;;14.50;45.60;;;;;;4992025;28;20101;-85
2021/04/13 13:02:32;;;;;;;2.75;1.15;;;14.60;45.50;;;;;;4986059;28;20037;-85
2021/04/13 13:04:58;;;;;;;3.88;0.98;;;14.60;45.10;;;;;;4987678;28;20030;-86
2021/04/13 13:07:27;;;;;;;1.95;0.73;;;14.50;45.50;;;;;;4985429;28;20498;-85
2021/04/13 13:09:53;;;;;;;1.63;0.75;;;14.50;46.20;;;;;;4988549;28;20032;-85
2021/04/13 13:12:32;;;;;;;2.97;0.75;;;14.40;48.90;;;;;;4990113;28;20030;-85
2021/04/13 13:15:06;;;;;;;1.80;0.70;;;14.40;47.90;;;;;;4991523;28;20057;-85
2021/04/13 13:17:38;;;;;;;4.22;0.90;;;14.40;46.90;;;;;;4992146;28;20019;-84
2021/04/13 13:20:07;;;;;;;2.92;0.90;;;14.40;45.00;;;;;;4997957;28;20023;-85
2021/04/13 13:22:33;;;;;;;2.33;0.98;;;14.40;47.00;;;;;;4987734;28;20125;-86
2021/04/13 13:25:15;;;;;;;3.88;1.00;;;14.60;48.60;;;;;;4964919;28;20038;-85
2021/04/13 13:27:40;;;;;;;2.08;0.80;;;14.70;45.40;;;;;;4996706;28;20037;-85
2021/04/13 13:30:10;;;;;;;1.40;0.65;;;14.80;45.30;;;;;;4992137;28;20037;-84
2021/04/13 13:32:38;;;;;;;2.15;0.93;;;14.80;46.70;;;;;;5000792;28;20536;-85
2021/04/13 13:35:14;;;;;;;3.78;1.00;;;14.70;47.30;;;;;;4993819;28;20096;-85
2021/04/13 13:37:44;;;;;;;5.25;1.50;;;14.60;47.90;;;;;;4996444;28;20055;-85
2021/04/13 13:40:23;;;;;;;2.85;0.90;;;14.50;48.20;;;;;;4992732;28;20088;-85
2021/04/13 13:42:50;;;;;;;3.95;0.80;;;14.40;44.80;;;;;;5004302;28;20045;-86
2021/04/13 13:45:46;;;;;;;2.70;0.70;;;14.30;43.90;;;;;;4993836;28;20450;-85
2021/04/13 13:48:26;;;;;;;4.40;1.35;;;14.20;47.60;;;;;;4994203;28;20034;-85
2021/04/13 13:51:22;;;;;;;3.60;1.20;;;14.10;47.50;;;;;;4996211;28;20486;-85